createdAt,value
2019-04-23T00:01:43.321Z,14.40
2019-04-23T00:06:42.989Z,14.40
2019-04-23T00:16:35.613Z,13.40
2019-04-23T00:21:40.546Z,14.20
2019-04-23T00:26:36.988Z,14.00
2019-04-23T00:36:32.171Z,13.80
2019-04-23T00:41:25.048Z,13.80
2019-04-23T00:46:25.919Z,13.70
2019-04-23T00:51:18.568Z,13.60
2019-04-23T00:56:35.572Z,13.50
2019-04-23T01:01:03.903Z,13.50
2019-04-23T01:06:09.547Z,13.40
2019-04-23T01:11:20.376Z,13.40
2019-04-23T01:16:15.351Z,13.40
2019-04-23T01:20:53.739Z,13.40
2019-04-23T01:25:52.335Z,13.30
2019-04-23T01:31:09.299Z,13.20
2019-04-23T01:36:10.823Z,13.20
2019-04-23T01:40:55.585Z,13.10
2019-04-23T01:45:49.485Z,13.00
2019-04-23T01:55:46.904Z,13.00
2019-04-23T02:00:41.073Z,12.90
2019-04-23T02:05:55.787Z,12.80
2019-04-23T02:15:47.497Z,12.70
2019-04-23T02:20:38.870Z,12.70
2019-04-23T02:25:40.763Z,12.60
2019-04-23T02:30:55.071Z,12.50
2019-04-23T02:35:52.832Z,12.50
2019-04-23T02:40:13.586Z,12.40
2019-04-23T02:45:23.920Z,12.40
2019-04-23T02:50:33.586Z,12.40
2019-04-23T02:55:26.382Z,12.40
2019-04-23T03:15:00.864Z,12.30
2019-04-23T03:30:26.478Z,12.20
2019-04-23T03:40:04.594Z,12.20
2019-04-23T03:45:07.637Z,12.20
2019-04-23T03:49:57.594Z,12.20
2019-04-23T03:54:45.522Z,12.20
2019-04-23T03:59:51.107Z,12.20
2019-04-23T04:09:42.522Z,12.10
2019-04-23T04:19:32.521Z,12.10
2019-04-23T04:24:27.649Z,12.10
2019-04-23T04:29:20.426Z,12.10
2019-04-23T04:34:40.097Z,12.10
2019-04-23T04:39:10.100Z,12.10
2019-04-23T04:44:26.397Z,12.10
2019-04-23T04:49:01.458Z,12.10
2019-04-23T05:03:39.101Z,12.50
2019-04-23T05:18:52.086Z,12.80
2019-04-23T05:28:38.827Z,13.00
2019-04-23T05:33:28.976Z,13.20
2019-04-23T05:38:35.954Z,13.40
2019-04-23T05:43:18.831Z,13.70
2019-04-23T05:48:20.119Z,13.90
2019-04-23T05:53:11.395Z,13.70
2019-04-23T05:58:17.031Z,13.80
2019-04-23T06:03:14.745Z,13.70
2019-04-23T06:08:04.703Z,13.80
2019-04-23T06:12:59.508Z,14.10
2019-04-23T06:17:56.165Z,14.50
2019-04-23T06:22:54.504Z,15.10
2019-04-23T06:27:47.992Z,16.20
2019-04-23T06:32:37.171Z,16.90
2019-04-23T06:37:51.676Z,17.20
2019-04-23T06:42:31.244Z,17.30
2019-04-23T06:47:24.923Z,19.40
2019-04-23T06:57:17.961Z,21.70
2019-04-23T07:07:31.085Z,22.10
2019-04-23T07:12:05.595Z,21.80
2019-04-23T07:16:58.497Z,21.00
2019-04-23T07:22:03.366Z,18.30
2019-04-23T07:26:41.961Z,17.90
2019-04-23T07:31:48.458Z,18.50
2019-04-23T07:36:41.076Z,19.60
2019-04-23T07:42:13.477Z,19.70
2019-04-23T07:47:15.791Z,19.50
2019-04-23T07:52:11.020Z,19.90
2019-04-23T07:57:10.916Z,20.50
2019-04-23T08:02:01.289Z,20.00
2019-04-23T08:06:55.381Z,21.10
2019-04-23T08:12:08.000Z,21.30
2019-04-23T08:16:42.482Z,20.10
2019-04-23T08:21:37.880Z,20.80
2019-04-23T08:26:55.200Z,21.70
2019-04-23T08:31:52.018Z,22.30
2019-04-23T08:36:48.350Z,22.00
2019-04-23T08:51:57.037Z,20.40
2019-04-23T08:56:50.010Z,19.80
2019-04-23T09:01:46.389Z,20.30
2019-04-23T09:06:27.757Z,20.00
2019-04-23T09:11:41.892Z,20.50
2019-04-23T09:16:31.537Z,20.20
2019-04-23T09:21:21.305Z,20.10
2019-04-23T09:26:08.994Z,20.50
2019-04-23T09:31:45.667Z,20.90
2019-04-23T09:41:39.939Z,21.70
2019-04-23T09:46:53.212Z,22.40
2019-04-23T09:51:46.930Z,23.00
2019-04-23T09:56:41.482Z,23.80
2019-04-23T10:06:12.415Z,23.60
2019-04-23T10:11:00.576Z,23.10
2019-04-23T10:15:56.210Z,21.50
2019-04-23T10:20:49.769Z,21.20
2019-04-23T10:25:43.722Z,21.40
2019-04-23T10:30:38.486Z,21.20
2019-04-23T10:35:41.441Z,21.20
2019-04-23T10:40:33.619Z,21.30
2019-04-23T10:45:44.777Z,21.40
2019-04-23T10:51:17.127Z,21.70
2019-04-23T10:55:58.925Z,21.00
2019-04-23T11:00:53.528Z,20.90
2019-04-23T11:05:59.109Z,20.90
2019-04-23T11:10:44.324Z,20.90
2019-04-23T11:20:47.980Z,22.20
2019-04-23T11:35:31.200Z,22.10
2019-04-23T11:40:23.189Z,22.40
2019-04-23T11:45:24.864Z,22.40
2019-04-23T11:50:18.896Z,22.70
2019-04-23T11:55:24.125Z,22.20
2019-04-23T12:00:05.584Z,22.60
2019-04-23T12:05:13.481Z,22.10
2019-04-23T12:10:20.130Z,22.00
2019-04-23T12:20:17.997Z,21.30
2019-04-23T12:25:06.565Z,21.50
2019-04-23T12:29:46.188Z,21.50
2019-04-23T12:34:58.503Z,22.00
2019-04-23T12:39:41.851Z,21.90
2019-04-23T12:44:38.767Z,21.80
2019-04-23T12:54:47.093Z,21.90
2019-04-23T12:59:23.826Z,22.90
2019-04-23T13:04:22.852Z,22.30
2019-04-23T13:09:21.975Z,22.50
2019-04-23T13:14:10.508Z,22.10
2019-04-23T13:19:03.601Z,22.40
2019-04-23T13:24:11.442Z,22.70
2019-04-23T13:29:06.917Z,22.40
2019-04-23T13:33:57.684Z,22.30
2019-04-23T13:39:10.247Z,22.50
2019-04-23T13:43:53.149Z,22.10
2019-04-23T13:48:42.085Z,22.50
2019-04-23T13:58:36.309Z,22.50
2019-04-23T14:03:35.698Z,22.40
2019-04-23T14:08:45.254Z,22.50
2019-04-23T14:13:37.248Z,22.30
2019-04-23T14:23:14.306Z,22.00
2019-04-23T14:33:15.448Z,22.20
2019-04-23T14:38:19.978Z,22.10
2019-04-23T14:43:02.242Z,22.00
2019-04-23T14:52:50.490Z,22.20
2019-04-23T14:57:57.488Z,22.40
2019-04-23T15:02:44.969Z,22.40
2019-04-23T15:07:28.207Z,22.60
2019-04-23T15:17:22.192Z,22.40
2019-04-23T15:22:20.371Z,22.10
2019-04-23T15:32:09.915Z,22.30
2019-04-23T15:42:08.469Z,22.40
2019-04-23T15:47:10.127Z,22.40
2019-04-23T15:51:52.539Z,22.60
2019-04-23T16:06:10.347Z,21.90
2019-04-23T16:11:41.408Z,22.10
2019-04-23T16:16:29.997Z,22.00
2019-04-23T16:21:28.924Z,22.00
2019-04-23T16:26:23.094Z,21.90
2019-04-23T16:31:23.094Z,21.80
2019-04-23T16:36:12.594Z,21.80
2019-04-23T16:41:06.227Z,21.80
2019-04-23T16:46:06.195Z,21.80
2019-04-23T16:55:56.066Z,21.80
2019-04-23T17:01:00.250Z,21.60
2019-04-23T17:05:53.715Z,21.60
2019-04-23T17:10:44.870Z,21.60
2019-04-23T17:15:48.194Z,21.40
2019-04-23T17:20:40.852Z,21.30
2019-04-23T17:25:28.446Z,21.20
2019-04-23T17:30:28.274Z,21.20
2019-04-23T17:35:30.155Z,21.10
2019-04-23T17:40:45.117Z,21.10
2019-04-23T17:50:23.446Z,20.90
2019-04-23T18:10:23.776Z,20.50
2019-04-23T18:14:59.351Z,20.40
2019-04-23T18:20:09.144Z,20.30
2019-04-23T18:25:08.274Z,20.30
2019-04-23T18:30:26.197Z,20.20
2019-04-23T18:35:15.324Z,20.10
2019-04-23T18:39:56.682Z,20.10
2019-04-23T18:44:57.425Z,20.10
2019-04-23T18:49:55.806Z,20.00
2019-04-23T18:55:08.776Z,20.00
2019-04-23T19:15:04.524Z,19.70
2019-04-23T19:19:55.243Z,19.50
2019-04-23T19:24:50.230Z,19.40
2019-04-23T19:29:50.906Z,19.40
2019-04-23T19:34:40.782Z,19.30
2019-04-23T19:39:40.210Z,19.30
2019-04-23T19:44:39.575Z,19.20
2019-04-23T19:49:35.799Z,19.20
2019-04-23T19:59:27.880Z,19.10
2019-04-23T20:04:15.081Z,19.10
2019-04-23T20:14:02.573Z,19.00
2019-04-23T20:19:03.129Z,19.00
2019-04-23T20:29:19.589Z,18.80
2019-04-23T20:34:34.448Z,18.80
2019-04-23T20:39:16.681Z,18.90
2019-04-23T20:44:01.810Z,18.80
2019-04-23T20:49:01.107Z,18.70
2019-04-23T20:53:55.360Z,18.70
2019-04-23T20:58:54.965Z,18.60
2019-04-23T21:03:51.916Z,18.50
2019-04-23T21:09:05.616Z,18.30
2019-04-23T21:18:39.399Z,18.20
2019-04-23T21:23:31.983Z,18.20
2019-04-23T21:28:35.931Z,18.10
2019-04-23T21:38:49.044Z,17.90
2019-04-23T21:43:57.346Z,17.90
2019-04-23T21:48:44.082Z,17.80
2019-04-23T21:53:33.139Z,17.80
2019-04-23T22:03:31.872Z,17.70
2019-04-23T22:08:36.885Z,17.70
2019-04-23T22:18:06.927Z,17.60
2019-04-23T22:33:07.165Z,17.50
2019-04-23T22:37:59.022Z,17.40
2019-04-23T22:43:07.426Z,17.40
2019-04-23T22:47:50.420Z,17.40
2019-04-23T22:52:40.783Z,17.40
2019-04-23T22:57:57.145Z,17.40
2019-04-23T23:02:54.658Z,17.30
2019-04-23T23:13:01.777Z,17.30
2019-04-23T23:17:42.976Z,17.40
2019-04-23T23:22:27.567Z,17.40
2019-04-23T23:27:23.930Z,17.40
2019-04-23T23:42:09.828Z,17.30
2019-04-23T23:47:13.556Z,17.40
2019-04-23T23:51:58.303Z,17.40
